Tiempo atmosférico en la estación meteorológica de Palencia, Palencia (736 m.)



Fecha
DESCASC
Temp. máxima en grados centígrados (hora)
DESCASC
Temp. mínima en grados centígrados (hora)
DESCASC
Temp. media en grados centígrados
DESCASC
Racha de viento máxima en m/sg (hora)
DESCASC
Velocidad máxima media en intervalos de 10 minutos(hora)
DESCASC
Precipitaciones diarias en mm
DESCASC
Precipitaciones de 00:00 a 06:00 en mm
DESCASC
Precipitaciones de 06:00 a 12:00 en mm
DESCASC
Precipitaciones de 12:00 a 18:00 en mm
DESCASC
Precipitaciones de 18:00 a 24:00 en mm
DESCASC
28-02-2021 13.6 (16:10) -0.3 (08:00) 6.7 9.17 (01:30) 4.44 (00:30) 0 0 0 0 0
27-02-2021 14.6 (16:10) 3.2 (03:50) 8.9 7.78 (10:50) 4.17 (10:40) 0 0 0 0 0
26-02-2021 14.7 (15:40) 5.1 (08:20) 9.9 6.39 (12:10) 3.33 (13:00) 0 0 0 0 0
25-02-2021 14 (16:30) 3 (00:00) 8.5 4.17 (13:10) 2.5 (13:10) 0 0 0 0 0
24-02-2021 17 (15:10) -1.1 (-00:0) 7.9 11.11 (15:10) 6.11 (15:30) 0 0 0 0 0
23-02-2021 15.2 (16:30) -2.1 (-00:0) 6.5 6.11 (15:50) 4.17 (10:50) 0 0 0 0 0
22-02-2021 10.9 (15:30) 0.3 (00:00) 5.6 10.56 (00:10) 4.72 (00:10) 8.6 8.6 0 0 0
21-02-2021 12.4 (12:40) 3.8 (00:00) 8.1 12.5 (06:10) 6.39 (06:10) 9 0 0 4 5
20-02-2021 13.8 (17:00) 2.7 (00:00) 8.3 11.94 (11:50) 5 (12:10) 0 0 0 0 0
19-02-2021 16.5 (15:10) 4 (00:00) 10.3 10.28 (15:10) 5.28 (15:20) 0 0 0 0 0
18-02-2021 13.3 (14:50) 4.6 (00:00) 9 12.78 (12:20) 7.5 (13:50) 1.2 0 0 0 1.2
17-02-2021 13.2 (16:20) 5.9 (00:00) 9.5 9.17 (14:30) 4.72 (14:30) 0.8 0.6 0.2 0 0
16-02-2021 14.5 (13:00) 3 (00:00) 8.8 11.67 (13:30) 7.22 (11:10) 0.4 0 0 0 0.4
15-02-2021 16.9 (17:00) 1 (00:00) 8.9 5.83 (14:00) 3.89 (13:50) 0 0 0 0 0
14-02-2021 15.4 (16:40) 1.1 (00:00) 8.2 5.56 (13:10) 3.33 (09:30) 0 0 0 0 0
13-02-2021 14.4 (16:10) 1.3 (00:00) 7.8 6.11 (14:10) 3.61 (16:50) 0 0 0 0 0
12-02-2021 13.6 (16:00) 3.8 (00:00) 8.7 13.33 (05:50) 8.33 (05:50) 5.6 5.6 0 0 0
11-02-2021 14.5 (16:20) 5.9 (00:00) 10.2 8.06 (17:10) 4.72 (17:20) 0.4 0 0.2 0.2 0
10-02-2021 11.4 (16:10) 3.1 (00:00) 7.2 13.33 (05:10) 8.33 (03:50) 2.6 2.6 0 0 0
09-02-2021 7.5 (11:10) 3.7 (00:00) 5.6 18.33 (12:30) 11.67 (12:30) 11.8 2.6 1 7.2 1
08-02-2021 8.8 (13:40) 4.6 (00:00) 6.7 15.83 (16:00) 9.72 (13:20) 1.2 1.2 0 0 0
07-02-2021 7.1 (14:30) -0.9 (-00:0) 3.1 9.72 (19:20) 5.83 (19:20) 1.4 0 0 1 0.4
06-02-2021 8.6 (00:00) 3.2 (00:00) 5.9 7.78 (08:40) 3.61 (08:50) 6.2 3.6 1 1.6 0
05-02-2021 12.8 (15:10) 5.1 (00:00) 9 7.78 (18:10) 4.17 (18:00) 3 0.6 1.4 0 1
04-02-2021 8.1 (11:10) 4.4 (00:00) 6.3 6.94 (15:10) 4.17 (15:20) 7.8 0.2 1.6 5.6 0.4
03-02-2021 12.2 (14:10) 7.2 (00:00) 9.7 14.17 (11:10) 6.67 (13:50) 5 0 1.8 1.2 2
02-02-2021 13.2 (15:40) 9.2 (08:40) 11.2 15 (20:10) 6.39 (20:20) 0 0 0 0 0
01-02-2021 13.8 (14:10) 7.2 (00:00) 10.5 17.5 (03:20) 11.11 (13:10) 0 0 0 0 0
31-01-2021 14.5 (16:10) 5.6 (00:00) 10 16.11 (23:50) 10.28 (03:30) 0 0 0 0 0
30-01-2021 10.5 (14:40) 5 (00:00) 7.8 20.28 (12:10) 13.06 (13:40) 0.2 0.2 0 0 0

Gráficas

Temp. máximas Temp. mínimas Temp. medias Precipitaciones Rachas de viento máximas Velocidades máximas media en intervalos de 10 minutos

Datos horarios

Fecha y hora oficial Temperatura (ºC) Velocidad del viento (km/h) Dirección del viento Racha (km/h) Dirección de racha Precipitación (mm) Presión (hPa) Tendencia (hPa) Humedad (%)
2021-02-28 23:00:00 4.6 5 Sudeste 8 Sudeste 0 -- -- 95
2021-02-28 22:00:00 3.5 3 Oeste 4 Noroeste 0 -- -- 89
2021-02-28 21:00:00 6 3 Norte 13 Este 0 -- -- 84
2021-02-28 20:00:00 7.3 5 Norte 13 Nordeste 0 -- -- 80
2021-02-28 19:00:00 8.6 4 Nordeste 19 Nordeste 0 -- -- 73
2021-02-28 18:00:00 10.5 7 Nordeste 21 Norte 0 -- -- 67
2021-02-28 17:00:00 12.7 8 Nordeste 32 Norte 0 -- -- 62
2021-02-28 16:00:00 13.3 6 Nordeste 16 Norte 0 -- -- 51
2021-02-28 15:00:00 13 5 Este 20 Nordeste 0 -- -- 52
2021-02-28 14:00:00 12.4 8 Este 20 Nordeste 0 -- -- 59
2021-02-28 13:00:00 10.5 8 Nordeste 20 Nordeste 0 -- -- 62
2021-02-28 12:00:00 8.7 9 Nordeste 18 Este 0 -- -- 68
2021-02-28 11:00:00 7.2 8 Nordeste 18 Nordeste 0 -- -- 74
2021-02-28 10:00:00 5.1 8 Nordeste 14 Nordeste 0 -- -- 78
2021-02-28 09:00:00 1.8 0 Calma 9 Este 0 -- -- 93
2021-02-28 08:00:00 -0.3 2 Norte 5 Nordeste 0 -- -- 93
2021-02-28 07:00:00 0.7 0 Calma 8 Norte 0 -- -- 92
2021-02-28 06:00:00 1.1 4 Norte 9 Nordeste 0 -- -- 91
2021-02-28 05:00:00 1.2 3 Norte 9 Sudoeste 0 -- -- 89
2021-02-28 04:00:00 1.8 3 Noroeste 10 Norte 0 -- -- 87
2021-02-28 03:00:00 2.6 4 Norte 24 Este 0 -- -- 86
2021-02-28 02:00:00 3 9 Nordeste 33 Este 0 -- -- 84
2021-02-28 01:00:00 3.6 9 Este 30 Nordeste 0 -- -- 79
2021-02-28 00:00:00 4.1 8 Nordeste 24 Este 0 -- -- 78
2021-02-27 23:00:00 5.1 10 Nordeste 22 Nordeste 0 -- -- 73
2021-02-27 22:00:00 5.9 9 Nordeste 19 Nordeste 0 -- -- 72
2021-02-27 21:00:00 7.4 4 Nordeste 15 Este 0 -- -- 67
2021-02-27 20:00:00 8.8 4 Nordeste 14 Norte 0 -- -- 61
2021-02-27 19:00:00 11 5 Nordeste 21 Nordeste 0 -- -- 55
2021-02-27 18:00:00 13.3 9 Nordeste 26 Este 0 -- -- 50
2021-02-27 17:00:00 14.4 9 Nordeste 21 Nordeste 0 -- -- 52
2021-02-27 16:00:00 14.3 10 Nordeste 24 Nordeste 0 -- -- 59
2021-02-27 15:00:00 13.6 11 Nordeste 24 Nordeste 0 -- -- 61
2021-02-27 14:00:00 13.1 8 Nordeste 26 Este 0 -- -- 66
2021-02-27 13:00:00 11.9 13 Nordeste 26 Nordeste 0 -- -- 70
2021-02-27 12:00:00 10.7 13 Nordeste 26 Nordeste 0 -- -- 72
2021-02-27 11:00:00 9.3 14 Nordeste 28 Este 0 -- -- 76
2021-02-27 10:00:00 7.9 14 Nordeste 27 Nordeste 0 -- -- 81
2021-02-27 09:00:00 6.4 6 Nordeste 16 Nordeste 0 -- -- 88
2021-02-27 08:00:00 5 5 Nordeste 15 Nordeste 0 -- -- 93
2021-02-27 07:00:00 4.7 6 Nordeste 15 Nordeste 0 -- -- 94
2021-02-27 06:00:00 4.2 3 Nordeste 10 Este 0 -- -- 97
2021-02-27 05:00:00 3.8 4 Noroeste 6 Noroeste 0 -- -- 98
2021-02-27 04:00:00 3.2 3 Oeste 4 Oeste 0 -- -- 95
2021-02-27 03:00:00 4.8 0 Calma 9 Nordeste 0 -- -- 93
2021-02-27 02:00:00 5.7 4 Nordeste 10 Norte 0 -- -- 92
2021-02-27 01:00:00 6.3 3 Nordeste 13 Este 0 -- -- 91
2021-02-27 00:00:00 6.9 4 Nordeste 13 Nordeste 0 -- -- 90
2021-02-26 23:00:00 7.1 3 Norte 9 Nordeste 0 -- -- 88
2021-02-26 22:00:00 7 3 Norte 5 Norte 0 -- -- 87
2021-02-26 21:00:00 7.7 0 Calma 7 Norte 0 -- -- 85
2021-02-26 20:00:00 9.3 3 Noroeste 17 Nordeste 0 -- -- 78
2021-02-26 19:00:00 11.3 4 Nordeste 18 Nordeste 0 -- -- 72
2021-02-26 18:00:00 13.1 6 Nordeste 20 Nordeste 0 -- -- 66
2021-02-26 17:00:00 14.5 7 Nordeste 21 Este 0 -- -- 63
2021-02-26 16:00:00 14.4 9 Este 21 Nordeste 0 -- -- 63
2021-02-26 15:00:00 14.2 12 Este 20 Este 0 -- -- 63
2021-02-26 14:00:00 13.5 8 Este 22 Nordeste 0 -- -- 67
2021-02-26 13:00:00 12.2 12 Este 23 Nordeste 0 -- -- 71
2021-02-26 12:00:00 11.3 10 Este 20 Nordeste 0 -- -- 75
2021-02-26 11:00:00 9.5 8 Nordeste 19 Nordeste 0 -- -- 83
2021-02-26 10:00:00 7.4 6 Nordeste 12 Este 0 -- -- 91
2021-02-26 09:00:00 5.4 0 Calma 5 Sudoeste 0 -- -- 94
2021-02-26 08:00:00 5.5 2 Noroeste 8 Noroeste 0 -- -- 94
2021-02-26 07:00:00 5.8 2 Nordeste 10 Nordeste 0 -- -- 93
2021-02-26 06:00:00 6.2 4 Nordeste 13 Norte 0 -- -- 92
2021-02-26 05:00:00 6.5 4 Nordeste 14 Nordeste 0 -- -- 90
2021-02-26 04:00:00 6.8 7 Nordeste 17 Este 0 -- -- 91
2021-02-26 03:00:00 6.6 4 Noroeste 9 Noroeste 0 -- -- 90
2021-02-26 02:00:00 7.2 4 Nordeste 13 Este 0 -- -- 89
2021-02-26 01:00:00 7.2 5 Nordeste 13 Este 0 -- -- 89
2021-02-26 00:00:00 7.4 5 Nordeste 13 Nordeste 0 -- -- 87
2021-02-25 23:00:00 7.5 2 Nordeste 7 Este 0 -- -- 88
2021-02-25 22:00:00 7.8 4 Norte 11 Nordeste 0 -- -- 86
2021-02-25 21:00:00 8.7 4 Nordeste 15 Este 0 -- -- 82
2021-02-25 20:00:00 10.1 3 Nordeste 13 Este 0 -- -- 79
2021-02-25 19:00:00 11.2 2 Nordeste 8 Nordeste 0 -- -- 73
2021-02-25 18:00:00 12.5 4 Noroeste 11 Noroeste 0 -- -- 68
2021-02-25 17:00:00 13.4 8 Norte 12 Norte 0 -- -- 63
2021-02-25 16:00:00 13.8 2 Noroeste 9 Oeste 0 -- -- 60
2021-02-25 15:00:00 13.6 2 Nordeste 13 Sudeste 0 -- -- 62
2021-02-25 14:00:00 13.3 6 Este 15 Sudeste 0 -- -- 64
2021-02-25 13:00:00 12.1 6 Sudeste 13 Sudeste 0 -- -- 70
2021-02-25 12:00:00 10.3 4 Sudeste 14 Sudeste 0 -- -- 75
2021-02-25 11:00:00 8.6 6 Sudeste 12 Sudeste 0 -- -- 80
2021-02-25 10:00:00 6.7 4 Sudeste 12 Sudeste 0 -- -- 88
2021-02-25 09:00:00 4.5 3 Sur 10 Sur 0 -- -- 95
2021-02-25 08:00:00 3.8 2 Oeste 9 Sudeste 0 -- -- 94
2021-02-25 07:00:00 3.7 3 Sur 8 Sur 0 -- -- 96
2021-02-25 06:00:00 3.4 4 Sur 8 Sur 0 -- -- 97
2021-02-25 05:00:00 3.1 2 Sur 4 Sudoeste 0 -- -- 95
2021-02-25 04:00:00 3.4 2 Sudeste 3 Sudeste 0 -- -- 93
2021-02-25 03:00:00 4 2 Sur 6 Sur 0 -- -- 91
2021-02-25 02:00:00 5.2 4 Sur 8 Sudeste 0 -- -- 89
2021-02-25 01:00:00 5.4 5 Sudeste 8 Sudeste 0 -- -- 89
2021-02-25 00:00:00 5.7 3 Sur 7 Sudeste 0 -- -- 90
2021-02-24 23:00:00 6.2 2 Sudoeste 12 Sudeste 0 -- -- 85
2021-02-24 22:00:00 7.9 6 Sudeste 10 Sudeste 0 -- -- 81
2021-02-24 21:00:00 8.6 4 Sudoeste 11 Sudoeste 0 -- -- 78
2021-02-24 20:00:00 10.2 6 Sur 12 Sur 0 -- -- 71
2021-02-24 19:00:00 12.6 8 Sur 22 Sur 0 -- -- 59
2021-02-24 18:00:00 15.5 14 Sudoeste 26 Sudoeste 0 -- -- 50
2021-02-24 17:00:00 16.7 12 Sur 29 Sur 0 -- -- 50
2021-02-24 16:00:00 16.7 13 Sur 40 Sur 0 -- -- 52
2021-02-24 15:00:00 16.9 16 Sur 39 Sur 0 -- -- 49
2021-02-24 14:00:00 15.2 14 Sudeste 27 Sudeste 0 -- -- 61
2021-02-24 13:00:00 13.4 15 Sudeste 24 Sudeste 0 -- -- 64
2021-02-24 12:00:00 11.7 10 Sudeste 22 Sudeste 0 -- -- 71
2021-02-24 11:00:00 9.4 9 Sudeste 15 Sudeste 0 -- -- 79
2021-02-24 10:00:00 5.2 6 Sudeste 9 Sudeste 0 -- -- 92
2021-02-24 09:00:00 0.1 0 Calma 4 Oeste 0 -- -- 98
2021-02-24 08:00:00 -0.9 2 Noroeste 6 Norte 0 -- -- 97
2021-02-24 07:00:00 -0.7 0 Calma 8 Sudeste 0 -- -- 97
2021-02-24 06:00:00 -0.5 0 Calma 4 Sudoeste 0 -- -- 96
2021-02-24 05:00:00 -0.3 0 Calma 6 Sudoeste 0 -- -- 95
2021-02-24 04:00:00 0.3 3 Sudoeste 5 Sudoeste 0 -- -- 94
2021-02-24 03:00:00 1.1 3 Sudoeste 10 Sudeste 0 -- -- 92
2021-02-24 02:00:00 2.2 0 Calma 10 Sudeste 0 -- -- 92
2021-02-24 01:00:00 2.9 0 Calma 8 Sur 0 -- -- 90
2021-02-24 00:00:00 3.9 4 Sudoeste 6 Sudoeste 0 -- -- 86
2021-02-23 23:00:00 4.6 4 Sur 13 Sur 0 -- -- 84
2021-02-23 22:00:00 5.3 7 Sudeste 11 Sudeste 0 -- -- 82
2021-02-23 21:00:00 5.5 5 Sur 13 Sudoeste 0 -- -- 81
2021-02-23 20:00:00 7.3 8 Sudoeste 11 Sudoeste 0 -- -- 77
2021-02-23 19:00:00 10.7 5 Sudoeste 21 Sur 0 -- -- 68
2021-02-23 18:00:00 14.3 8 Sur 21 Sudoeste 0 -- -- 52
2021-02-23 17:00:00 15.1 10 Sudoeste 21 Sur 0 -- -- 52
2021-02-23 16:00:00 14.9 11 Sudoeste 22 Sudoeste 0 -- -- 53
2021-02-23 15:00:00 13.9 11 Sudoeste 21 Sur 0 -- -- 57
2021-02-23 14:00:00 12.6 8 Sudeste 19 Sudeste 0 -- -- 59
2021-02-23 13:00:00 11.3 7 Sudeste 17 Sudeste 0 -- -- 67
2021-02-23 12:00:00 9.5 8 Sudeste 19 Sudeste 0 -- -- 78
2021-02-23 11:00:00 6.7 14 Sudeste 20 Sudeste 0 -- -- 85
2021-02-23 10:00:00 2.7 6 Sudeste 11 Sudeste 0 -- -- 99
2021-02-23 09:00:00 -0.4 0 Calma 5 Sur 0 -- -- 99
2021-02-23 08:00:00 -1.7 0 Calma 4 Oeste 0 -- -- 97
2021-02-23 07:00:00 -0.7 0 Calma 5 Sur 0 -- -- 95
2021-02-23 06:00:00 -0.3 3 Sur 10 Sudeste 0 -- -- 97
2021-02-23 05:00:00 -0.6 5 Sudeste 13 Sudeste 0 -- -- 95
2021-02-23 04:00:00 -0.8 3 Sudeste 7 Sudeste 0 -- -- 97
2021-02-23 03:00:00 0 2 Sudoeste 11 Sudeste 0 -- -- 97
2021-02-23 02:00:00 -0.2 5 Sudeste 8 Sudeste 0 -- -- 95
2021-02-23 01:00:00 0.2 2 Sudeste 10 Sudeste 0 -- -- 95
2021-02-23 00:00:00 0.3 5 Sudeste 8 Sudeste 0 -- -- 93
2021-02-22 23:00:00 0.9 4 Sudeste 7 Sudeste 0 -- -- 92
2021-02-22 22:00:00 1.9 3 Sur 8 Sudoeste 0 -- -- 90
2021-02-22 21:00:00 2.7 3 Sudoeste 9 Sudoeste 0 -- -- 89
2021-02-22 20:00:00 4.3 0 Calma 10 Sudoeste 0 -- -- 85
2021-02-22 19:00:00 6.9 6 Oeste 16 Oeste 0 -- -- 79
2021-02-22 18:00:00 9.8 11 Oeste 19 Oeste 0 -- -- 68
2021-02-22 17:00:00 10.1 11 Oeste 20 Oeste 0 -- -- 63
2021-02-22 16:00:00 9.8 7 Noroeste 20 Oeste 0 -- -- 67
2021-02-22 15:00:00 10.3 7 Sudoeste 19 Oeste 0 -- -- 64
2021-02-22 14:00:00 9 4 Este 10 Sudeste 0 -- -- 76
2021-02-22 13:00:00 7 5 Sudeste 9 Norte 0 -- -- 79
2021-02-22 12:00:00 6 3 Norte 17 Oeste 0 -- -- 83
2021-02-22 11:00:00 4.6 9 Noroeste 22 Oeste 0 -- -- 86
2021-02-22 10:00:00 3.1 9 Oeste 22 Sudoeste 0 -- -- 93
2021-02-22 09:00:00 2.5 14 Oeste 26 Oeste 0 -- -- 94
2021-02-22 08:00:00 3 9 Oeste 19 Oeste 0 -- -- 95
2021-02-22 07:00:00 3.6 6 Oeste 15 Oeste 0 -- -- 97
2021-02-22 06:00:00 3.5 5 Noroeste 9 Oeste 0.6 -- -- 98
2021-02-22 05:00:00 3.2 5 Noroeste 19 Norte 1.8 -- -- 98
2021-02-22 04:00:00 2.9 10 Noroeste 23 Noroeste 2 -- -- 97
2021-02-22 03:00:00 3.2 13 Noroeste 26 Noroeste 1.8 -- -- 97
2021-02-22 02:00:00 4 9 Norte 23 Norte 1.2 -- -- 97
2021-02-22 01:00:00 3.9 14 Noroeste 38 Noroeste 1.2 -- -- 98
2021-02-22 00:00:00 3.8 17 Noroeste 32 Noroeste 0.2 -- -- 96
2021-02-21 23:00:00 4.8 16 Noroeste 26 Noroeste 0.4 -- -- 96
2021-02-21 22:00:00 5.1 12 Oeste 29 Noroeste 0.6 -- -- 97
2021-02-21 21:00:00 5.4 17 Oeste 27 Oeste 0.2 -- -- 97
2021-02-21 20:00:00 6.1 10 Oeste 31 Oeste 0.4 -- -- 96
2021-02-21 19:00:00 6.6 11 Noroeste 21 Oeste 3.2 -- -- 95
2021-02-21 18:00:00 7.7 3 Noroeste 12 Noroeste 2.2 -- -- 93
2021-02-21 17:00:00 8.2 4 Noroeste 13 Oeste 1.4 -- -- 91
2021-02-21 16:00:00 8.9 11 Oeste 26 Oeste 0.2 -- -- 88
2021-02-21 15:00:00 11.2 11 Sudeste 23 Sudeste 0.2 -- -- 73
2021-02-21 14:00:00 11.8 10 Sudeste 31 Sudeste 0 -- -- 70
2021-02-21 13:00:00 12.3 18 Sudeste 32 Sudeste 0 -- -- 62
2021-02-21 12:00:00 11.6 22 Sudeste 32 Sudeste 0 -- -- 63
2021-02-21 11:00:00 10.4 15 Sudeste 29 Sudeste 0 -- -- 66
2021-02-21 10:00:00 8.9 14 Sudeste 23 Sudeste 0 -- -- 70
2021-02-21 09:00:00 7.4 5 Sudeste 13 Sudeste 0 -- -- 74
2021-02-21 08:00:00 8.2 9 Sudeste 22 Sudeste 0 -- -- 72
2021-02-21 07:00:00 8.8 12 Sudeste 45 Sudeste 0 -- -- 70
2021-02-21 06:00:00 9.5 18 Sudeste 32 Sudeste 0 -- -- 69
2021-02-21 05:00:00 9 10 Sudeste 20 Sudeste 0 -- -- 70
2021-02-21 04:00:00 9.1 17 Sudeste 28 Sudeste 0 -- -- 63
2021-02-21 03:00:00 7.1 4 Sudeste 10 Sudeste 0 -- -- 60
2021-02-21 02:00:00 8.6 4 Sudeste 11 Sudeste 0 -- -- 57
2021-02-21 01:00:00 9.6 6 Sudeste 19 Sudeste 0 -- -- 52
2021-02-21 00:00:00 11.2 12 Sudeste 28 Sudeste 0 -- -- 42
2021-02-20 23:00:00 11.6 13 Sudeste 29 Sudeste 0 -- -- 42
2021-02-20 22:00:00 11.9 15 Sudeste 26 Sudeste 0 -- -- 44
2021-02-20 21:00:00 11.9 8 Sur 27 Sudeste 0 -- -- 46
2021-02-20 20:00:00 12.4 13 Sur 28 Sudeste 0 -- -- 45
2021-02-20 19:00:00 12.6 9 Sur 23 Sur 0 -- -- 49
2021-02-20 18:00:00 13.3 12 Sur 34 Sur 0 -- -- 46
2021-02-20 17:00:00 13.8 14 Sur 31 Sur 0 -- -- 48
2021-02-20 16:00:00 13 11 Sudeste 24 Sudeste 0 -- -- 48
2021-02-20 15:00:00 13.2 10 Sur 24 Sur 0 -- -- 47
2021-02-20 14:00:00 12.6 11 Sur 26 Sur 0 -- -- 48
2021-02-20 13:00:00 12.9 13 Sur 41 Sudoeste 0 -- -- 53
2021-02-20 12:00:00 12.8 18 Sur 43 Sudoeste 0 -- -- 55
2021-02-20 11:00:00 10.2 9 Sur 29 Sur 0 -- -- 67
2021-02-20 10:00:00 6.2 0 Calma 9 Sur 0 -- -- 86
2021-02-20 09:00:00 3.7 0 Calma 10 Sur 0 -- -- 87
2021-02-20 08:00:00 2.9 0 Calma 6 Sudeste 0 -- -- 88
2021-02-20 07:00:00 3.5 3 Este 10 Sudeste 0 -- -- 87
2021-02-20 06:00:00 2.9 0 Calma 5 Sudeste 0 -- -- 90
2021-02-20 05:00:00 2.8 0 Calma 4 Este 0 -- -- 90
2021-02-20 04:00:00 3.2 2 Nordeste 10 Sudeste 0 -- -- 88
2021-02-20 03:00:00 3.2 4 Sudeste 7 Sudeste 0 -- -- 89
2021-02-20 02:00:00 3.3 5 Sudeste 9 Sudeste 0 -- -- 88
2021-02-20 01:00:00 3.6 3 Este 11 Sudoeste 0 -- -- 85
2021-02-20 00:00:00 4 6 Sur 10 Sudoeste 0 -- -- 86
2021-02-19 23:00:00 5.2 3 Sur 10 Oeste 0 -- -- 82
2021-02-19 22:00:00 6.5 6 Sudoeste 17 Sur 0 -- -- 77
2021-02-19 21:00:00 8 9 Sur 19 Sudoeste 0 -- -- 70
2021-02-19 20:00:00 8.8 5 Sudoeste 14 Sudoeste 0 -- -- 69
2021-02-19 19:00:00 11.4 8 Sudoeste 23 Sudoeste 0 -- -- 60
2021-02-19 18:00:00 13.3 14 Sudoeste 31 Sudoeste 0 -- -- 51
2021-02-19 17:00:00 14.6 17 Sudoeste 33 Sudoeste 0 -- -- 48
2021-02-19 16:00:00 15.3 19 Sudoeste 37 Sudoeste 0 -- -- 49
2021-02-19 15:00:00 16.4 19 Sudoeste 33 Sudoeste 0 -- -- 46
2021-02-19 14:00:00 15.6 16 Sudoeste 33 Sudoeste 0 -- -- 48
2021-02-19 13:00:00 14.2 18 Sudoeste 33 Sudoeste 0 -- -- 58
2021-02-19 12:00:00 12.7 15 Sudoeste 31 Sudoeste 0 -- -- 66
2021-02-19 11:00:00 11.1 13 Sudoeste 30 Sudoeste 0 -- -- 71
2021-02-19 10:00:00 8.2 11 Sur 20 Sudoeste 0 -- -- 83
2021-02-19 09:00:00 6.6 5 Sur 15 Sudoeste 0 -- -- 89
2021-02-19 08:00:00 5.5 6 Sudoeste 12 Sudoeste 0 -- -- 88
2021-02-19 07:00:00 6.3 8 Sudoeste 14 Sur 0 -- -- 89
2021-02-19 06:00:00 6.1 7 Sur 16 Sudoeste 0 -- -- 87
2021-02-19 05:00:00 6.8 4 Sur 13 Sur 0 -- -- 92
2021-02-19 04:00:00 7.3 4 Sur 10 Sudoeste 0 -- -- 92
2021-02-19 03:00:00 7.9 5 Sur 12 Sudoeste 0 -- -- 94
2021-02-19 02:00:00 8.1 0 Calma 5 Sudoeste 0 -- -- 95
2021-02-19 01:00:00 8.6 0 Calma 5 Sur 0 -- -- 94
2021-02-19 00:00:00 8.8 2 Sur 14 Oeste 0 -- -- 94
2021-02-18 23:00:00 8.9 7 Sudoeste 20 Sudoeste 0.2 -- -- 94
2021-02-18 22:00:00 9.1 13 Sudoeste 22 Sudoeste 0.4 -- -- 93
2021-02-18 21:00:00 9 8 Sur 22 Sudoeste 0.2 -- -- 92
2021-02-18 20:00:00 9.2 10 Sudoeste 36 Sudoeste 0.4 -- -- 89
2021-02-18 19:00:00 10.6 12 Sudoeste 29 Sudoeste 0 -- -- 81
2021-02-18 18:00:00 11.9 14 Sudoeste 33 Sudoeste 0 -- -- 74
2021-02-18 17:00:00 12.4 19 Sudoeste 42 Oeste 0 -- -- 73
2021-02-18 16:00:00 13 17 Sudoeste 34 Oeste 0 -- -- 67
2021-02-18 15:00:00 13.1 24 Sudoeste 44 Sudoeste 0 -- -- 66
2021-02-18 14:00:00 12.1 24 Oeste 45 Sudoeste 0 -- -- 67
2021-02-18 13:00:00 12.6 23 Sudoeste 46 Oeste 0 -- -- 69
2021-02-18 12:00:00 12.4 20 Sudoeste 40 Sudoeste 0 -- -- 70
2021-02-18 11:00:00 11 21 Sudoeste 34 Sudoeste 0 -- -- 71
2021-02-18 10:00:00 8 10 Sudoeste 21 Sudoeste 0 -- -- 86
2021-02-18 09:00:00 6 9 Sur 20 Sudoeste 0 -- -- 96
2021-02-18 08:00:00 4.8 6 Sur 15 Sudoeste 0 -- -- 97
2021-02-18 07:00:00 4.9 2 Sudeste 14 Sur 0 -- -- 95
2021-02-18 06:00:00 5.6 6 Sudoeste 18 Sudoeste 0 -- -- 93
2021-02-18 05:00:00 5.8 11 Sudoeste 21 Sur 0 -- -- 95
2021-02-18 04:00:00 6 6 Sur 17 Sudoeste 0 -- -- 92
2021-02-18 03:00:00 7.1 14 Sudoeste 25 Sur 0 -- -- 90
2021-02-18 02:00:00 7.1 15 Sudoeste 23 Sudoeste 0 -- -- 91
2021-02-18 01:00:00 6 5 Sudoeste 10 Sur 0 -- -- 92
2021-02-18 00:00:00 7.3 5 Sur 13 Sur 0 -- -- 87
2021-02-17 23:00:00 8.1 8 Sudoeste 23 Sur 0 -- -- 87
2021-02-17 22:00:00 8.4 8 Sudoeste 13 Sudoeste 0 -- -- 88
2021-02-17 21:00:00 8.9 6 Sudoeste 18 Sudoeste 0 -- -- 88
2021-02-17 20:00:00 9.8 7 Sudoeste 12 Sudoeste 0 -- -- 85
2021-02-17 19:00:00 11.6 6 Sudoeste 18 Sudoeste 0 -- -- 80
2021-02-17 18:00:00 12.8 9 Sudoeste 21 Sudoeste 0 -- -- 76
2021-02-17 17:00:00 13.1 12 Sudoeste 24 Sudoeste 0 -- -- 76
2021-02-17 16:00:00 12.7 9 Sudoeste 28 Oeste 0 -- -- 79
2021-02-17 15:00:00 12.6 12 Sudoeste 33 Sudoeste 0 -- -- 78
2021-02-17 14:00:00 12.7 9 Sudoeste 25 Sudoeste 0 -- -- 82
2021-02-17 13:00:00 12.3 9 Sudoeste 20 Sur 0 -- -- 86
2021-02-17 12:00:00 11.1 8 Sur 16 Sur 0 -- -- 90
2021-02-17 11:00:00 10.2 7 Sur 16 Sur 0 -- -- 96
2021-02-17 10:00:00 8.2 5 Sur 15 Sur 0 -- -- 99
2021-02-17 09:00:00 6.8 3 Sur 12 Sudoeste 0.2 -- -- 98
2021-02-17 08:00:00 6.6 6 Sudoeste 12 Sudoeste 0 -- -- 99
2021-02-17 07:00:00 5.9 3 Sur 9 Sur 0 -- -- 98
2021-02-17 06:00:00 5.9 5 Sudeste 9 Sudeste 0 -- -- 97
2021-02-17 05:00:00 6.8 4 Sudoeste 10 Sudoeste 0 -- -- 97
2021-02-17 04:00:00 7.3 7 Sudoeste 13 Sudoeste 0 -- -- 96
2021-02-17 03:00:00 7.8 3 Oeste 17 Oeste 0.4 -- -- 96
2021-02-17 02:00:00 8.2 9 Oeste 12 Oeste 0.2 -- -- 97
2021-02-17 01:00:00 7.8 5 Sudoeste 10 Sudoeste 0 -- -- 97
2021-02-17 00:00:00 7.3 5 Sudoeste 13 Sudoeste 0 -- -- 96
2021-02-16 23:00:00 7.4 8 Oeste 19 Oeste 0 -- -- 94
2021-02-16 22:00:00 8.3 10 Sudoeste 22 Sudoeste 0 -- -- 92
2021-02-16 21:00:00 8.7 12 Oeste 25 Sudoeste 0 -- -- 93
2021-02-16 20:00:00 8.7 13 Oeste 25 Oeste 0 -- -- 94
2021-02-16 19:00:00 9.3 15 Oeste 34 Oeste 0.4 -- -- 90
2021-02-16 18:00:00 11.7 12 Sudoeste 30 Oeste 0 -- -- 81
2021-02-16 17:00:00 12.4 14 Sudoeste 28 Sudoeste 0 -- -- 72
2021-02-16 16:00:00 12.1 15 Sudoeste 30 Sudoeste 0 -- -- 73
2021-02-16 15:00:00 12.5 18 Sudoeste 39 Sudoeste 0 -- -- 71
2021-02-16 14:00:00 13.7 22 Sudoeste 42 Sudoeste 0 -- -- 63
2021-02-16 13:00:00 14.5 23 Sudoeste 42 Sudoeste 0 -- -- 62
2021-02-16 12:00:00 12.9 18 Sudoeste 39 Oeste 0 -- -- 64
2021-02-16 11:00:00 11 24 Oeste 39 Oeste 0 -- -- 73
2021-02-16 10:00:00 8.6 12 Sudoeste 21 Sudoeste 0 -- -- 80
2021-02-16 09:00:00 4.6 8 Sudoeste 15 Sudoeste 0 -- -- 95
2021-02-16 08:00:00 3.1 2 Sudeste 13 Sudeste 0 -- -- 90
2021-02-16 07:00:00 3.7 8 Sudeste 12 Sudeste 0 -- -- 92
2021-02-16 06:00:00 4.2 7 Sudeste 16 Sudeste 0 -- -- 90
2021-02-16 05:00:00 4.2 9 Sudeste 14 Sudeste 0 -- -- 89
2021-02-16 04:00:00 5.3 6 Sur 15 Sudeste 0 -- -- 85
2021-02-16 03:00:00 5.6 9 Sudeste 17 Sudeste 0 -- -- 89
2021-02-16 02:00:00 5.8 8 Sudeste 14 Sudeste 0 -- -- 87
2021-02-16 01:00:00 6.3 10 Sudeste 15 Sudeste 0 -- -- 85
2021-02-16 00:00:00 6.5 6 Sudeste 19 Sudeste 0 -- -- 83
2021-02-15 23:00:00 7.5 8 Sudeste 12 Sudeste 0 -- -- 81
2021-02-15 22:00:00 8.9 2 Este 13 Sur 0 -- -- 77
2021-02-15 21:00:00 9.7 6 Sur 21 Sudoeste 0 -- -- 75
2021-02-15 20:00:00 9.4 3 Sur 8 Sudoeste 0 -- -- 77
2021-02-15 19:00:00 12.8 4 Sudoeste 14 Sudeste 0 -- -- 69
2021-02-15 18:00:00 15.6 8 Sudeste 17 Sudeste 0 -- -- 57
2021-02-15 17:00:00 16.9 10 Sur 19 Este 0 -- -- 51
2021-02-15 16:00:00 16.2 6 Sudeste 16 Sudeste 0 -- -- 58
2021-02-15 15:00:00 15.7 12 Sudeste 19 Sudeste 0 -- -- 60
2021-02-15 14:00:00 15.1 14 Sudeste 21 Sudeste 0 -- -- 63
2021-02-15 13:00:00 13.5 10 Sudeste 19 Sudeste 0 -- -- 69
2021-02-15 12:00:00 11 13 Sudeste 17 Sudeste 0 -- -- 77
2021-02-15 11:00:00 8.7 8 Sudeste 13 Sudeste 0 -- -- 81
2021-02-15 10:00:00 5.9 9 Sudeste 13 Sudeste 0 -- -- 96
2021-02-15 09:00:00 1.8 0 Calma 6 Sudeste 0 -- -- 99
2021-02-15 08:00:00 1.2 3 Sudeste 4 Sudeste 0 -- -- 97
2021-02-15 07:00:00 2 0 Calma 7 Sudeste 0 -- -- 96
2021-02-15 06:00:00 2.6 3 Sur 5 Sudeste 0 -- -- 96
2021-02-15 05:00:00 3.3 2 Sudeste 12 Sudeste 0 -- -- 94
2021-02-15 04:00:00 4.5 4 Sudeste 17 Sudeste 0 -- -- 93
2021-02-15 03:00:00 5 4 Sudeste 9 Sur 0 -- -- 91
2021-02-15 02:00:00 5.9 4 Sur 9 Sur 0 -- -- 91
2021-02-15 01:00:00 6 5 Sur 9 Sudoeste 0 -- -- 92
2021-02-15 00:00:00 6.1 5 Sur 9 Sur 0 -- -- 94
2021-02-14 23:00:00 5.8 5 Sudeste 8 Sudeste 0 -- -- 94
2021-02-14 22:00:00 6.3 3 Sur 6 Sur 0 -- -- 92
2021-02-14 21:00:00 7.2 3 Sudoeste 7 Sudoeste 0 -- -- 89
2021-02-14 20:00:00 8.6 3 Oeste 10 Sudoeste 0 -- -- 85
2021-02-14 19:00:00 10.5 7 Sudoeste 9 Sudoeste 0 -- -- 80
2021-02-14 18:00:00 13.6 3 Sur 12 Sur 0 -- -- 68
2021-02-14 17:00:00 15.2 8 Sudoeste 16 Sudoeste 0 -- -- 60
2021-02-14 16:00:00 14.9 5 Sudoeste 14 Sudoeste 0 -- -- 64
2021-02-14 15:00:00 14.2 7 Sudoeste 17 Sudoeste 0 -- -- 69
2021-02-14 14:00:00 13.2 9 Sur 20 Sudeste 0 -- -- 75
2021-02-14 13:00:00 10.1 10 Sudeste 17 Sudeste 0 -- -- 97
2021-02-14 12:00:00 6.9 8 Sudeste 17 Sudeste 0 -- -- 100
2021-02-14 11:00:00 4.8 9 Sudeste 13 Sudeste 0 -- -- 100
2021-02-14 10:00:00 3.3 8 Sudeste 17 Sudeste 0 -- -- 100
2021-02-14 09:00:00 2.9 8 Sur 17 Sudeste 0 -- -- 100
2021-02-14 08:00:00 3.2 5 Sudeste 9 Sudeste 0 -- -- 100
2021-02-14 07:00:00 2.6 3 Sur 6 Sur 0 -- -- 100
2021-02-14 06:00:00 1.8 0 Calma 7 Noroeste 0 -- -- 99
2021-02-14 05:00:00 1.3 0 Calma 5 Sur 0 -- -- 98
2021-02-14 04:00:00 1.9 0 Calma 13 Sudeste 0 -- -- 98
2021-02-14 03:00:00 2.4 8 Sudeste 10 Sudeste 0 -- -- 98
2021-02-14 02:00:00 2.6 6 Sudeste 8 Sudeste 0 -- -- 97
2021-02-14 01:00:00 3 4 Sudeste 7 Sudeste 0 -- -- 96
2021-02-14 00:00:00 3.7 3 Sudeste 7 Sudeste 0 -- -- 96
2021-02-13 23:00:00 4.1 3 Sudeste 5 Sudoeste 0 -- -- 95
2021-02-13 22:00:00 4.7 2 Sudeste 6 Sur 0 -- -- 92
2021-02-13 21:00:00 5.7 2 Sudeste 6 Sur 0 -- -- 90
2021-02-13 20:00:00 7 3 Sur 12 Oeste 0 -- -- 86
2021-02-13 19:00:00 9.7 8 Sudoeste 12 Oeste 0 -- -- 81
2021-02-13 18:00:00 12.2 9 Noroeste 22 Noroeste 0 -- -- 69
2021-02-13 17:00:00 13.9 10 Noroeste 20 Noroeste 0 -- -- 64
2021-02-13 16:00:00 14.2 8 Oeste 22 Noroeste 0 -- -- 62
2021-02-13 15:00:00 13.6 10 Oeste 22 Oeste 0 -- -- 64
2021-02-13 14:00:00 12.2 9 Oeste 19 Oeste 0 -- -- 68
2021-02-13 13:00:00 10.7 10 Oeste 20 Noroeste 0 -- -- 77
2021-02-13 08:00:00 1.3 3 Sudeste 8 Sur 0 -- -- 99
2021-02-13 07:00:00 1.6 3 Sudeste 9 Sudoeste 0 -- -- 98
2021-02-13 06:00:00 1.5 4 Sudeste 10 Sur 0 -- -- 98
2021-02-13 05:00:00 1.6 4 Sudeste 10 Sur 0 -- -- 97
2021-02-13 04:00:00 1.9 3 Sudeste 9 Sudeste 0 -- -- 96
2021-02-13 03:00:00 2.2 0 Calma 4 Sudeste 0 -- -- 95
2021-02-13 02:00:00 2.9 2 Sudeste 5 Sudeste 0 -- -- 95
2021-02-13 01:00:00 3.2 3 Norte 9 Noroeste 0 -- -- 94
2021-02-13 00:00:00 3.8 2 Sudoeste 9 Sudoeste 0 -- -- 91
2021-02-12 23:00:00 5 2 Este 10 Oeste 0 -- -- 88
2021-02-12 22:00:00 6.2 3 Este 13 Noroeste 0 -- -- 83
2021-02-12 21:00:00 7.8 11 Noroeste 26 Oeste 0 -- -- 80
2021-02-12 20:00:00 8.8 15 Oeste 24 Oeste 0 -- -- 78
2021-02-12 19:00:00 9.8 16 Oeste 26 Oeste 0 -- -- 75
2021-02-12 18:00:00 11.6 18 Oeste 33 Oeste 0 -- -- 69
2021-02-12 17:00:00 13 21 Noroeste 37 Oeste 0 -- -- 66
2021-02-12 16:00:00 13.6 23 Oeste 36 Noroeste 0 -- -- 67
2021-02-12 15:00:00 13.3 23 Noroeste 42 Oeste 0 -- -- 66
2021-02-12 14:00:00 11.9 23 Noroeste 42 Oeste 0 -- -- 71
2021-02-12 13:00:00 11.1 23 Oeste 41 Oeste 0 -- -- 81
2021-02-12 12:00:00 9.8 24 Oeste 42 Oeste 0 -- -- 84
2021-02-12 11:00:00 8.2 25 Oeste 45 Oeste 0 -- -- 92
2021-02-12 10:00:00 7.8 28 Oeste 46 Oeste 0 -- -- 93
2021-02-12 09:00:00 7.6 24 Oeste 42 Oeste 0 -- -- 93
2021-02-12 08:00:00 8.1 22 Oeste 39 Oeste 0 -- -- 94
2021-02-12 07:00:00 8.2 14 Oeste 37 Oeste 0 -- -- 94
2021-02-12 06:00:00 9 25 Oeste 48 Oeste 0.6 -- -- 94
2021-02-12 05:00:00 9.4 21 Oeste 34 Oeste 0.2 -- -- 95
2021-02-12 04:00:00 9.3 11 Sudoeste 23 Sudoeste 1.4 -- -- 96
2021-02-12 03:00:00 9.4 15 Sudoeste 30 Sudoeste 1.8 -- -- 93
2021-02-12 02:00:00 9.1 12 Sudoeste 27 Sudoeste 1.6 -- -- 96
2021-02-12 01:00:00 9.2 8 Sur 19 Sudoeste 0 -- -- 93
2021-02-12 00:00:00 9.4 9 Sur 25 Sudoeste 0 -- -- 92
2021-02-11 23:00:00 9.5 13 Sudoeste 23 Sudoeste 0 -- -- 91
2021-02-11 22:00:00 10.2 12 Sudoeste 23 Sudoeste 0 -- -- 91
2021-02-11 21:00:00 10.5 10 Sur 23 Sudoeste 0 -- -- 90
2021-02-11 20:00:00 11.2 7 Sudoeste 19 Sudoeste 0 -- -- 90
2021-02-11 19:00:00 11.6 12 Sudoeste 23 Sudoeste 0 -- -- 87
2021-02-11 18:00:00 13 8 Sudoeste 29 Sudoeste 0 -- -- 82
2021-02-11 17:00:00 14.3 14 Sudoeste 27 Sudoeste 0.2 -- -- 78
2021-02-11 16:00:00 14.3 15 Oeste 27 Sudoeste 0 -- -- 82
2021-02-11 15:00:00 14.2 11 Oeste 21 Sudoeste 0 -- -- 83
2021-02-11 14:00:00 13.7 9 Sudoeste 19 Sudoeste 0 -- -- 83
2021-02-11 13:00:00 12 4 Sur 12 Sudoeste 0 -- -- 98
2021-02-11 12:00:00 10.2 7 Sur 14 Sudoeste 0 -- -- 97
2021-02-11 11:00:00 9.4 6 Sudoeste 14 Sudoeste 0 -- -- 97
2021-02-11 10:00:00 8.9 8 Sudoeste 16 Sur 0 -- -- 97
2021-02-11 09:00:00 8.2 8 Sudoeste 20 Sudoeste 0.2 -- -- 98
2021-02-11 08:00:00 7.6 9 Sudoeste 21 Sudoeste 0 -- -- 98
2021-02-11 07:00:00 7.5 6 Sudoeste 21 Sudoeste 0 -- -- 98
2021-02-11 06:00:00 7 11 Sudoeste 21 Sudoeste 0 -- -- 98
2021-02-11 05:00:00 6.1 5 Sur 13 Sudoeste 0 -- -- 96
2021-02-11 04:00:00 6.5 6 Sur 12 Sudoeste 0 -- -- 92
2021-02-11 03:00:00 6.2 5 Sudeste 21 Oeste 0 -- -- 91
2021-02-11 02:00:00 6.6 14 Sudoeste 28 Sudoeste 0 -- -- 87
2021-02-11 01:00:00 6.7 10 Sudoeste 19 Sudoeste 0 -- -- 84
2021-02-11 00:00:00 5.9 8 Sudoeste 17 Sudoeste 0 -- -- 88
2021-02-10 23:00:00 5.3 6 Sudoeste 9 Sudoeste 0 -- -- 86
2021-02-10 22:00:00 5.2 3 Sudeste 17 Oeste 0 -- -- 80
2021-02-10 21:00:00 6.5 7 Sudoeste 18 Sudoeste 0 -- -- 77
2021-02-10 20:00:00 6.9 7 Sudoeste 12 Sudoeste 0 -- -- 77
2021-02-10 19:00:00 7.4 6 Oeste 12 Oeste 0 -- -- 80
2021-02-10 18:00:00 8.6 8 Oeste 26 Noroeste 0 -- -- 74
2021-02-10 17:00:00 10.8 19 Oeste 30 Oeste 0 -- -- 64
2021-02-10 16:00:00 11.3 17 Oeste 29 Oeste 0 -- -- 61
2021-02-10 15:00:00 11.1 15 Oeste 31 Oeste 0 -- -- 61
2021-02-10 14:00:00 10 16 Oeste 31 Oeste 0 -- -- 67
2021-02-10 13:00:00 8.9 18 Oeste 35 Oeste 0 -- -- 73
2021-02-10 12:00:00 7 17 Oeste 40 Oeste 0 -- -- 81
2021-02-10 11:00:00 6.3 21 Oeste 41 Oeste 0 -- -- 84
2021-02-10 10:00:00 4.7 22 Oeste 48 Oeste 0 -- -- 90
2021-02-10 09:00:00 3.3 27 Oeste 46 Oeste 0 -- -- 95
2021-02-10 08:00:00 3.2 24 Oeste 44 Sudoeste 0 -- -- 96
2021-02-10 07:00:00 3.6 27 Oeste 42 Oeste 0 -- -- 97
2021-02-10 06:00:00 3.5 26 Oeste 48 Oeste 0 -- -- 97
2021-02-10 05:00:00 4.1 27 Oeste 47 Oeste 0 -- -- 97
2021-02-10 04:00:00 4.5 30 Oeste 47 Oeste 0.6 -- -- 95
2021-02-10 03:00:00 4.6 23 Sudoeste 41 Sudoeste 2 -- -- 96
2021-02-10 02:00:00 5 12 Sudoeste 27 Sudoeste 0 -- -- 97
2021-02-10 01:00:00 4.8 19 Sudoeste 32 Sudoeste 0 -- -- 96
2021-02-10 00:00:00 4.8 14 Sudoeste 33 Oeste 0 -- -- 97
2021-02-09 23:00:00 4.6 24 Oeste 43 Oeste 0 -- -- 96
2021-02-09 22:00:00 4 18 Oeste 31 Oeste 0 -- -- 97
2021-02-09 21:00:00 3.7 15 Sudoeste 29 Sur 0.6 -- -- 98
2021-02-09 20:00:00 3.9 10 Sur 25 Sudoeste 0.2 -- -- 97
2021-02-09 19:00:00 4 10 Sudoeste 44 Sudoeste 0.2 -- -- 96
2021-02-09 18:00:00 4.9 28 Oeste 43 Oeste 0 -- -- 92
2021-02-09 17:00:00 5.6 16 Sudoeste 37 Sudoeste 0 -- -- 93
2021-02-09 16:00:00 6.1 15 Sudoeste 39 Sudoeste 0 -- -- 93
2021-02-09 15:00:00 5.5 15 Oeste 32 Sudoeste 0 -- -- 99
2021-02-09 14:00:00 4.1 23 Oeste 51 Oeste 2.4 -- -- 97
2021-02-09 13:00:00 5.3 30 Oeste 66 Oeste 4.8 -- -- 97
2021-02-09 12:00:00 7.5 20 Sudoeste 40 Sur 0.6 -- -- 96
2021-02-09 11:00:00 7.4 23 Sudoeste 45 Sur 0.4 -- -- 95
2021-02-09 10:00:00 7.2 25 Sudoeste 46 Sur 0 -- -- 95
2021-02-09 09:00:00 6.6 16 Sur 34 Sur 0 -- -- 98
2021-02-09 08:00:00 6 14 Sur 32 Sudoeste 0 -- -- 98
2021-02-09 07:00:00 5.5 11 Sur 30 Sudoeste 0 -- -- 99
2021-02-09 06:00:00 4.9 11 Sur 27 Sur 0 -- -- 99
2021-02-09 05:00:00 4.4 11 Sur 28 Sudoeste 0.4 -- -- 97
2021-02-09 04:00:00 4.6 15 Sudoeste 35 Sudoeste 0.8 -- -- 93
2021-02-09 03:00:00 5.3 18 Sudoeste 36 Sudoeste -- -- -- 92
2021-02-09 02:00:00 6.1 13 Sudoeste 33 Sudoeste 0 -- -- 89
2021-02-09 01:00:00 6 20 Oeste 40 Oeste 0 -- -- 88
2021-02-09 00:00:00 6.2 22 Oeste 48 Oeste 0 -- -- 91
2021-02-08 23:00:00 6.3 23 Oeste 39 Oeste 0 -- -- 91
2021-02-08 22:00:00 5.7 15 Sudoeste 35 Oeste 0 -- -- 92
2021-02-08 21:00:00 5.4 22 Oeste 39 Oeste 0 -- -- 91
2021-02-08 20:00:00 5.5 23 Oeste 39 Oeste 0 -- -- 90
2021-02-08 19:00:00 6 24 Oeste 48 Oeste 0 -- -- 88
2021-02-08 18:00:00 6.5 28 Oeste 46 Sudoeste 0 -- -- 86
2021-02-08 17:00:00 7 23 Oeste 52 Oeste 0 -- -- 86
2021-02-08 16:00:00 7.4 35 Oeste 57 Oeste 0 -- -- 87
2021-02-08 15:00:00 7.8 25 Oeste 51 Oeste 0 -- -- 82
2021-02-08 14:00:00 8.6 25 Oeste 53 Oeste 0 -- -- 80
2021-02-08 13:00:00 8.5 34 Oeste 52 Oeste 0 -- -- 80
2021-02-08 12:00:00 7 28 Oeste 52 Oeste 0 -- -- 85
2021-02-08 11:00:00 6.3 30 Oeste 46 Oeste 0 -- -- 87
2021-02-08 10:00:00 5.7 26 Oeste 43 Oeste 0 -- -- 89
2021-02-08 09:00:00 4.7 24 Oeste 41 Oeste 0 -- -- 92
2021-02-08 08:00:00 4.9 25 Oeste 45 Oeste 0 -- -- 92
2021-02-08 07:00:00 5.3 25 Oeste 39 Oeste 0 -- -- 91
2021-02-08 06:00:00 5.6 21 Oeste 35 Sudoeste 0 -- -- 92
2021-02-08 05:00:00 5.9 18 Sudoeste 38 Sudoeste 0 -- -- 91
2021-02-08 04:00:00 6.5 19 Sudoeste 41 Sudoeste 0 -- -- 93
2021-02-08 03:00:00 6.1 17 Sudoeste 32 Sudoeste 0 -- -- 95
2021-02-08 02:00:00 5.4 10 Sudoeste 28 Sudoeste 1 -- -- 97
2021-02-08 01:00:00 5.1 16 Sudoeste 28 Sur 0.2 -- -- 97
2021-02-08 00:00:00 4.9 11 Sur 22 Sur 0 -- -- 97
2021-02-07 23:00:00 4.7 6 Sur 19 Sur 0 -- -- 97
2021-02-07 22:00:00 4.6 4 Sudoeste 24 Sudoeste 0 -- -- 95
2021-02-07 21:00:00 4.4 14 Sudoeste 28 Sudoeste 0 -- -- 95
2021-02-07 20:00:00 4.2 15 Oeste 35 Sudoeste 0 -- -- 95
2021-02-07 19:00:00 4 15 Oeste 30 Oeste 0.4 -- -- 94
2021-02-07 18:00:00 4 10 Oeste 32 Oeste 0.6 -- -- 93
2021-02-07 17:00:00 4.9 16 Oeste 30 Oeste 0.4 -- -- 87
2021-02-07 16:00:00 6.9 16 Oeste 29 Oeste 0 -- -- 76
2021-02-07 15:00:00 6.9 18 Oeste 27 Oeste 0 -- -- 78
2021-02-07 14:00:00 6.8 12 Oeste 27 Oeste 0 -- -- 76
2021-02-07 13:00:00 6.3 10 Oeste 19 Noroeste 0 -- -- 82
2021-02-07 12:00:00 5.6 8 Oeste 18 Sudoeste 0 -- -- 86
2021-02-07 11:00:00 4.2 7 Sudoeste 13 Sudoeste 0 -- -- 92
2021-02-07 10:00:00 1.9 3 Sudeste 6 Sudeste 0 -- -- 100
2021-02-07 09:00:00 0.3 3 Sudeste 5 Sudeste 0 -- -- 99
2021-02-07 08:00:00 -0.7 2 Sur 4 Sudeste 0 -- -- 98
2021-02-07 07:00:00 -0.8 0 Calma 5 Oeste 0 -- -- 96
2021-02-07 06:00:00 0 3 Oeste 10 Sudoeste 0 -- -- 96
2021-02-07 05:00:00 0.6 3 Sudoeste 8 Oeste 0 -- -- 95
2021-02-07 04:00:00 1.2 4 Oeste 7 Sudoeste 0 -- -- 94
2021-02-07 03:00:00 2.1 0 Calma 5 Nordeste 0 -- -- 93
2021-02-07 02:00:00 3 2 Sudeste 5 Este 0 -- -- 91
2021-02-07 01:00:00 2.9 0 Calma 5 Este 0 -- -- 93
2021-02-07 00:00:00 3.2 3 Este 8 Este 0 -- -- 90
2021-02-06 23:00:00 4 3 Nordeste 11 Nordeste 0 -- -- 88
2021-02-06 22:00:00 4.3 4 Nordeste 15 Nordeste 0 -- -- 87
2021-02-06 21:00:00 5.1 6 Nordeste 13 Este 0 -- -- 87
2021-02-06 20:00:00 5.3 5 Nordeste 10 Nordeste 0 -- -- 87
2021-02-06 19:00:00 5.5 8 Nordeste 15 Este 0 -- -- 86
2021-02-06 18:00:00 6 9 Nordeste 21 Este 0 -- -- 86
2021-02-06 17:00:00 6 9 Nordeste 18 Este 0 -- -- 88
2021-02-06 16:00:00 6.1 5 Nordeste 15 Nordeste 0.4 -- -- 91
2021-02-06 15:00:00 5.7 8 Nordeste 18 Nordeste 0.6 -- -- 91
2021-02-06 14:00:00 6.1 9 Nordeste 23 Nordeste 0.6 -- -- 89
2021-02-06 13:00:00 6.4 5 Nordeste 15 Nordeste 0 -- -- 90
2021-02-06 12:00:00 6.2 7 Este 17 Nordeste 0 -- -- 90
2021-02-06 11:00:00 5.7 6 Este 14 Nordeste 0.8 -- -- 92
2021-02-06 10:00:00 5.5 8 Este 26 Nordeste 0.2 -- -- 93
2021-02-06 09:00:00 5.7 9 Nordeste 28 Nordeste 0 -- -- 91
2021-02-06 08:00:00 6.1 8 Nordeste 23 Nordeste 0 -- -- 94
2021-02-06 07:00:00 7 7 Norte 18 Norte 0 -- -- 94
2021-02-06 06:00:00 7.5 5 Noroeste 10 Nordeste 0.2 -- -- 97
2021-02-06 05:00:00 7.9 4 Este 9 Nordeste 1.2 -- -- 98
2021-02-06 04:00:00 7.9 3 Este 9 Nordeste 0.6 -- -- 97
2021-02-06 03:00:00 8.1 2 Este 6 Este 0.6 -- -- 96
2021-02-06 02:00:00 8.3 2 Este 15 Este 0.4 -- -- 95
2021-02-06 01:00:00 8.4 5 Este 15 Este 0.6 -- -- 95
2021-02-06 00:00:00 8.6 8 Sudeste 18 Este 1 -- -- 93
2021-02-05 23:00:00 8.8 3 Este 12 Nordeste 0 -- -- 90
2021-02-05 22:00:00 8.9 3 Nordeste 16 Este 0 -- -- 89
2021-02-05 21:00:00 9.3 9 Nordeste 23 Este 0 -- -- 88
2021-02-05 20:00:00 9.4 10 Nordeste 21 Este 0 -- -- 89
2021-02-05 19:00:00 9.7 6 Nordeste 28 Este 0 -- -- 87
2021-02-05 18:00:00 10.8 15 Nordeste 27 Nordeste 0 -- -- 81
2021-02-05 17:00:00 11.9 6 Nordeste 21 Nordeste 0 -- -- 82
2021-02-05 16:00:00 12.2 6 Nordeste 14 Nordeste 0 -- -- 80
2021-02-05 15:00:00 12.7 6 Nordeste 18 Norte 0 -- -- 79
2021-02-05 14:00:00 12 4 Norte 14 Norte 0 -- -- 86
2021-02-05 13:00:00 10.9 6 Noroeste 12 Noroeste 0 -- -- 91
2021-02-05 12:00:00 8.8 4 Nordeste 8 Nordeste 0.4 -- -- 100
2021-02-05 11:00:00 7 0 Calma 4 Sur 0.4 -- -- 100
2021-02-05 10:00:00 6.2 3 Sur 6 Sudoeste 0.2 -- -- 100
2021-02-05 09:00:00 5.6 0 Calma 7 Sudoeste 0 -- -- 100
2021-02-05 08:00:00 5.3 0 Calma 7 Oeste 0 -- -- 100
2021-02-05 07:00:00 5.5 4 Oeste 8 Oeste 0.4 -- -- 100
2021-02-05 06:00:00 5.2 2 Norte 8 Este 0 -- -- 100
2021-02-05 05:00:00 5.2 0 Calma 8 Norte 0.4 -- -- 100
2021-02-05 04:00:00 5.3 5 Norte 13 Noroeste 0 -- -- 100
2021-02-05 03:00:00 5.3 5 Norte 10 Noroeste 0 -- -- 100
2021-02-05 02:00:00 5.4 3 Noroeste 5 Norte 0.2 -- -- 100
2021-02-05 01:00:00 5.1 2 Noroeste 9 Noroeste 0 -- -- 100
2021-02-05 00:00:00 5.1 6 Noroeste 9 Noroeste 0.2 -- -- 100
2021-02-04 23:00:00 4.9 4 Noroeste 6 Noroeste 0 -- -- 100
2021-02-04 22:00:00 4.6 2 Sudoeste 5 Sur 0 -- -- 100
2021-02-04 21:00:00 4.9 2 Sudeste 8 Sur 0 -- -- 98
2021-02-04 20:00:00 5.5 3 Sudeste 8 Sudeste 0 -- -- 99
2021-02-04 19:00:00 5.7 4 Sur 6 Sudeste 0.2 -- -- 99
2021-02-04 18:00:00 5.7 0 Calma 8 Noroeste 0.2 -- -- 98
2021-02-04 17:00:00 5.6 5 Noroeste 17 Norte 1.4 -- -- 98
2021-02-04 16:00:00 5.7 8 Norte 25 Noroeste 0.4 -- -- 96
2021-02-04 15:00:00 6.6 14 Noroeste 21 Noroeste 0.2 -- -- 97
2021-02-04 14:00:00 6.8 8 Noroeste 18 Noroeste 2.4 -- -- 97
2021-02-04 13:00:00 7.3 4 Norte 18 Noroeste 1 -- -- 97
2021-02-04 12:00:00 7.7 11 Noroeste 18 Noroeste 0.4 -- -- 98
2021-02-04 11:00:00 8 4 Sudeste 7 Sudeste 0.2 -- -- 100
2021-02-04 10:00:00 7.6 0 Calma 3 Norte 0.4 -- -- 100
2021-02-04 09:00:00 7.1 0 Calma 5 Oeste 0.4 -- -- 100
2021-02-04 08:00:00 7.2 0 Calma 6 Sudeste 0.2 -- -- 99
2021-02-04 07:00:00 7 0 Calma 5 Sur 0 -- -- 99
2021-02-04 06:00:00 7.3 4 Sur 5 Sur 0 -- -- 98
2021-02-04 05:00:00 7.6 0 Calma 8 Sur 0 -- -- 98
2021-02-04 04:00:00 7.8 0 Calma 13 Sudoeste 0 -- -- 98
2021-02-04 03:00:00 7.8 5 Sur 10 Sudoeste 0.2 -- -- 99
2021-02-04 02:00:00 7.5 5 Sur 12 Sudoeste 0 -- -- 98
2021-02-04 01:00:00 7.1 7 Sudoeste 15 Sur 0 -- -- 98
2021-02-04 00:00:00 7.2 7 Sudoeste 17 Sudoeste 0 -- -- 96
2021-02-03 23:00:00 7.4 6 Sur 16 Sudoeste 0 -- -- 95
2021-02-03 22:00:00 7.6 7 Sur 15 Sudoeste 0 -- -- 94
2021-02-03 21:00:00 8.2 8 Sur 24 Sudoeste 0.6 -- -- 93
2021-02-03 20:00:00 8.8 11 Sudoeste 20 Sudoeste 0.6 -- -- 92
2021-02-03 19:00:00 9.2 6 Sur 13 Sudoeste 0.8 -- -- 94
2021-02-03 18:00:00 9.7 5 Sur 25 Oeste 0 -- -- 90
2021-02-03 17:00:00 10.1 10 Sudoeste 30 Oeste 1 -- -- 88
2021-02-03 16:00:00 10.7 13 Oeste 27 Oeste 0.2 -- -- 86
2021-02-03 15:00:00 11.6 15 Oeste 37 Oeste 0 -- -- 79
2021-02-03 14:00:00 11.7 22 Oeste 39 Oeste 0 -- -- 77
2021-02-03 13:00:00 11.3 19 Oeste 36 Sudoeste 0 -- -- 80
2021-02-03 12:00:00 11.1 22 Sudoeste 51 Oeste 0 -- -- 81
2021-02-03 11:00:00 10.2 19 Oeste 30 Sudoeste 0 -- -- 88
2021-02-03 10:00:00 8.7 15 Sudoeste 27 Sudoeste 0.6 -- -- 95
2021-02-03 09:00:00 8.2 7 Sudoeste 24 Sudoeste 1.2 -- -- 95
2021-02-03 08:00:00 8.7 17 Sudoeste 32 Sudoeste 0 -- -- 91
2021-02-03 07:00:00 8.8 15 Sur 29 Sur 0 -- -- 88
2021-02-03 06:00:00 8.9 16 Sur 35 Sudoeste 0 -- -- 87
2021-02-03 05:00:00 9.1 15 Sur 34 Sudoeste 0 -- -- 87
2021-02-03 04:00:00 8.8 17 Sur 31 Sudoeste 0 -- -- 89
2021-02-03 03:00:00 8.7 16 Sur 39 Sur 0 -- -- 86
2021-02-03 02:00:00 8.8 19 Sur 41 Sur 0 -- -- 82
2021-02-03 01:00:00 9.2 10 Sur 31 Sur 0 -- -- 82
2021-02-03 00:00:00 9.6 12 Sur 28 Sur 0 -- -- 81
2021-02-02 23:00:00 9.8 10 Sur 28 Sudoeste 0 -- -- 80
2021-02-02 22:00:00 10 13 Sur 31 Sur 0 -- -- 80
2021-02-02 21:00:00 10.6 17 Sudoeste 54 Sudoeste 0 -- -- 76
2021-02-02 20:00:00 10.5 22 Sudoeste 35 Sudoeste 0 -- -- 78
2021-02-02 19:00:00 10.6 9 Sudoeste 24 Oeste 0 -- -- 79
2021-02-02 18:00:00 11.2 10 Sudoeste 27 Sudoeste 0 -- -- 79
2021-02-02 17:00:00 12 15 Sudoeste 29 Sudoeste 0 -- -- 74
2021-02-02 16:00:00 12.8 14 Sudoeste 33 Sudoeste 0 -- -- 72
2021-02-02 15:00:00 11.8 18 Oeste 31 Oeste 0 -- -- 78
2021-02-02 14:00:00 12.1 21 Oeste 36 Oeste 0 -- -- 74
2021-02-02 13:00:00 -- 17 Sudoeste 37 Sudoeste 0 -- -- --
2021-02-02 12:00:00 11.5 12 Sudoeste 25 Sudoeste 0 -- -- 78
2021-02-02 11:00:00 10.7 13 Sudoeste 30 Sudoeste 0 -- -- 77
2021-02-02 10:00:00 10 10 Sudoeste 31 Oeste 0 -- -- 86
2021-02-02 09:00:00 9.4 10 Sudoeste 23 Sudoeste 0 -- -- 91
2021-02-02 08:00:00 9.9 11 Sudoeste 29 Sudoeste 0 -- -- 90
2021-02-02 07:00:00 10.1 19 Oeste 36 Oeste 0 -- -- 89
2021-02-02 06:00:00 10.3 14 Oeste 30 Oeste 0 -- -- 89
2021-02-02 05:00:00 10.4 12 Sudoeste 41 Sudoeste 0 -- -- 91
2021-02-02 04:00:00 10.3 16 Oeste 32 Sudoeste 0 -- -- 91
2021-02-02 03:00:00 10.3 15 Sudoeste 37 Oeste 0 -- -- 91
2021-02-02 02:00:00 10 15 Oeste 46 Oeste 0 -- -- 91
2021-02-02 01:00:00 10 19 Sudoeste 33 Oeste 0 -- -- 90
2021-02-02 00:00:00 9.4 15 Sudoeste 29 Sudoeste 0 -- -- 89
2021-02-01 23:00:00 9 19 Sudoeste 32 Oeste 0 -- -- 88
2021-02-01 22:00:00 9.7 22 Oeste 36 Oeste 0 -- -- 86
2021-02-01 21:00:00 9.6 20 Oeste 41 Oeste 0 -- -- 83
2021-02-01 20:00:00 10 22 Oeste 40 Sudoeste 0 -- -- 81
2021-02-01 19:00:00 11.1 27 Oeste 48 Oeste 0 -- -- 76
2021-02-01 18:00:00 12 24 Oeste 48 Oeste 0 -- -- 73
2021-02-01 17:00:00 13.3 27 Oeste 52 Sudoeste 0 -- -- 69
2021-02-01 16:00:00 13.1 30 Oeste 51 Oeste 0 -- -- 71
2021-02-01 15:00:00 13.6 32 Oeste 56 Oeste 0 -- -- 70
2021-02-01 14:00:00 13.6 39 Oeste 55 Oeste 0 -- -- 72
2021-02-01 13:00:00 13.2 38 Oeste 55 Oeste 0 -- -- 75
2021-02-01 12:00:00 11.7 34 Oeste 47 Oeste 0 -- -- 77
2021-02-01 11:00:00 10.3 30 Oeste 48 Oeste 0 -- -- 80
2021-02-01 10:00:00 8.8 30 Oeste 53 Oeste 0 -- -- 85
2021-02-01 09:00:00 7.3 37 Oeste 61 Oeste 0 -- -- 89
2021-02-01 08:00:00 7.3 32 Oeste 57 Oeste 0 -- -- 88
2021-02-01 07:00:00 7.5 35 Oeste 52 Oeste 0 -- -- 86
2021-02-01 06:00:00 7.5 31 Oeste 49 Oeste 0 -- -- 85
2021-02-01 05:00:00 7.7 32 Oeste 53 Oeste 0 -- -- 84
2021-02-01 04:00:00 7.7 36 Oeste 63 Oeste 0 -- -- 84
2021-02-01 03:00:00 7.9 35 Oeste 58 Oeste 0 -- -- 83
2021-02-01 02:00:00 8.2 33 Oeste 53 Oeste 0 -- -- 82
2021-02-01 01:00:00 8.9 33 Oeste 62 Oeste 0 -- -- 84
2021-02-01 00:00:00 9.4 34 Oeste 58 Oeste 0 -- -- 86
2021-01-31 23:00:00 9.6 27 Oeste 50 Oeste 0 -- -- 85
2021-01-31 22:00:00 9.8 30 Oeste 47 Oeste 0 -- -- 82
2021-01-31 21:00:00 10.5 29 Oeste 52 Oeste 0 -- -- 78
2021-01-31 20:00:00 11.3 32 Oeste 56 Oeste 0 -- -- 73
2021-01-31 19:00:00 12.1 27 Oeste 49 Oeste 0 -- -- 75
2021-01-31 18:00:00 13.7 29 Oeste 49 Oeste 0 -- -- 74
2021-01-31 17:00:00 14.1 21 Oeste 47 Oeste 0 -- -- 79
2021-01-31 16:00:00 14.1 25 Oeste 44 Oeste 0 -- -- 79
2021-01-31 15:00:00 13.4 25 Oeste 42 Oeste 0 -- -- 82
2021-01-31 14:00:00 13.4 25 Oeste 55 Oeste 0 -- -- 80
2021-01-31 13:00:00 11.1 28 Sudoeste 46 Oeste 0 -- -- 87
2021-01-31 12:00:00 10.2 30 Oeste 49 Oeste 0 -- -- 89
2021-01-31 11:00:00 8.4 23 Oeste 41 Oeste 0 -- -- 92
2021-01-31 10:00:00 7.6 25 Oeste 43 Oeste 0 -- -- 91
2021-01-31 09:00:00 6.9 22 Oeste 39 Sudoeste 0 -- -- 89
2021-01-31 08:00:00 6.5 22 Oeste 39 Oeste 0 -- -- 88
2021-01-31 07:00:00 6.3 26 Oeste 43 Oeste 0 -- -- 82
2021-01-31 06:00:00 6.5 25 Oeste 44 Oeste 0 -- -- 77
2021-01-31 05:00:00 6.4 31 Oeste 52 Oeste 0 -- -- 78
2021-01-31 04:00:00 6.2 35 Oeste 54 Oeste 0 -- -- 79
2021-01-31 03:00:00 5.8 31 Oeste 53 Oeste 0 -- -- 82
2021-01-31 02:00:00 5.7 24 Oeste 42 Oeste 0 -- -- 88
2021-01-31 01:00:00 5.9 21 Oeste 38 Oeste 0 -- -- 86
2021-01-31 00:00:00 5.6 25 Oeste 36 Oeste 0 -- -- 85
2021-01-30 23:00:00 5.5 19 Oeste 33 Oeste 0 -- -- 88
2021-01-30 22:00:00 5.4 17 Oeste 38 Oeste 0 -- -- 87
2021-01-30 21:00:00 5.5 17 Oeste 33 Oeste 0 -- -- 88
2021-01-30 20:00:00 6 13 Oeste 42 Noroeste 0 -- -- 92
2021-01-30 19:00:00 6.5 27 Oeste 53 Oeste 0 -- -- 90
2021-01-30 18:00:00 8 32 Oeste 61 Noroeste 0 -- -- 78
2021-01-30 17:00:00 8.5 35 Oeste 62 Oeste 0 -- -- 80
2021-01-30 16:00:00 9.2 42 Oeste 68 Oeste 0 -- -- 74
2021-01-30 15:00:00 9.6 41 Oeste 63 Oeste 0 -- -- 69
2021-01-30 14:00:00 9.7 39 Oeste 68 Oeste 0 -- -- 68
2021-01-30 13:00:00 9.4 40 Oeste 73 Oeste 0 -- -- 70
2021-01-30 12:00:00 8.8 41 Oeste 64 Oeste 0 -- -- 74
2021-01-30 11:00:00 8.3 35 Oeste 60 Oeste 0 -- -- 82
2021-01-30 10:00:00 7.4 38 Oeste 62 Sudoeste 0 -- -- 86
2021-01-30 09:00:00 6.8 27 Oeste 44 Oeste 0 -- -- 89
2021-01-30 08:00:00 7.1 20 Sudoeste 47 Oeste 0 -- -- 92
2021-01-30 07:00:00 7.4 21 Oeste 35 Oeste 0 -- -- 92
2021-01-30 06:00:00 7.8 23 Oeste 54 Oeste 0 -- -- 92
2021-01-30 05:00:00 8.2 33 Oeste 55 Oeste 0 -- -- 87
2021-01-30 04:00:00 8.6 38 Oeste 61 Oeste 0.2 -- -- 89
2021-01-30 03:00:00 9.5 13 Sudoeste 29 Sudoeste 0 -- -- 95
2021-01-30 02:00:00 10.1 13 Sudoeste 32 Sudoeste 0 -- -- 90
2021-01-30 01:00:00 10.3 16 Sudoeste 27 Sudoeste 0 -- -- 89
2021-01-30 00:00:00 10.2 14 Sudoeste 27 Sudoeste 0 -- -- 88